Louis Cristal — 9HA2978 — position and weather

sailwx.info

Track history (hours):
 
Tides and Currents Weather Stations Pressure Air Temp Water Temp Dewpoint Dewpoint Depression Visibility Wind Speed Wind Dir Waves Ship Positions

Louis Cristal

Last reported at 2014-Aug-28 04:31 UTC. Time now 2014-Aug-28 05:29 UTC.
Position N 36°43' E 025°16'.

Length 162 m; draft 6 m.

Type: Passenger vessel. MMSI: 229001000.

Date/timePositionNaut miles runAvg speedWind from/ knotsBaromVisibWave heightAir tempDewpointWater temp
2014-Aug-28 04:31N 36°43' E 025°16'0 0.4
2014-Aug-28 03:33N 36°43' E 025°16'7 7.2
2014-Aug-28 02:33N 36°37' E 025°22'9 8.4
2014-Aug-28 01:32N 36°39' E 025°32'8 8.2
2014-Aug-28 00:33N 36°41' E 025°42'9 8.7
2014-Aug-27 23:33N 36°42' E 025°53'9 8.5
2014-Aug-27 22:33N 36°44' E 026°03'9 8.5
2014-Aug-27 21:33N 36°46' E 026°13'9 8.9
2014-Aug-27 20:33N 36°47' E 026°24'9 8.1
2014-Aug-27 19:25N 36°49' E 026°36'7 7.7
2014-Aug-27 18:31N 36°51' E 026°44'27 8.2
2014-Aug-27 15:13N 36°56' E 027°17'14 0.6
2014-Aug-26 16:32N 37°03' E 027°03'1414.1
2014-Aug-26 15:33N 37°16' E 026°56'1716.6
2014-Aug-26 14:33N 37°30' E 026°43'1616.4
2014-Aug-26 13:33N 37°43' E 026°32'1917.3
2014-Aug-26 12:28N 37°60' E 026°21'27 2.3
2014-Aug-26 00:32N 37°55' E 025°47'1212.0
2014-Aug-25 23:34N 37°47' E 025°36'1212.0
2014-Aug-25 22:34N 37°38' E 025°25'1211.7
2014-Aug-25 21:34N 37°31' E 025°14'1211.7
2014-Aug-25 20:33N 37°27' E 025°00'3 2.7
2014-Aug-25 19:33N 37°26' E 024°57'0 0.0
2014-Aug-25 18:33N 37°26' E 024°57'0 0.0
2014-Aug-25 17:33N 37°26' E 024°57'0 0.0
2014-Aug-25 16:33N 37°26' E 024°57'0 0.1
2014-Aug-25 15:33N 37°26' E 024°57'11 9.9
2014-Aug-25 14:28N 37°32' E 024°45'1516.0
2014-Aug-25 13:33N 37°31' E 024°27'1313.2
2014-Aug-25 12:32N 37°34' E 024°10'6 0.6
2014-Aug-25 02:26N 37°39' E 024°05'6 6.4
2014-Aug-25 01:33N 37°34' E 024°07'6 6.4
2014-Aug-25 00:33N 37°28' E 024°09'13 6.5
2014-Aug-24 22:33N 37°15' E 024°13'8 6.7
2014-Aug-24 21:22N 37°07' E 024°15'6 6.7
2014-Aug-24 20:33N 37°02' E 024°16'7 6.7
2014-Aug-24 19:33N 36°56' E 024°19'7 6.7
2014-Aug-24 18:33N 36°49' E 024°21'7 6.9
2014-Aug-24 17:33N 36°43' E 024°25'4 0.3
2014-Aug-24 04:33N 36°47' E 024°23'1816.3
2014-Aug-24 03:27N 37°02' E 024°35'1516.4
2014-Aug-24 02:33N 37°07' E 024°52'1616.2
2014-Aug-24 01:33N 37°13' E 025°11'1616.2
2014-Aug-24 00:33N 37°19' E 025°30'1615.3
2014-Aug-23 23:32N 37°25' E 025°49'1615.6
2014-Aug-23 22:32N 37°30' E 026°07'1414.7
2014-Aug-23 21:33N 37°38' E 026°23'1814.5
2014-Aug-23 20:19N 37°49' E 026°40'1 0.1
2014-Aug-23 01:33N 37°50' E 026°41'1514.9
2014-Aug-23 00:33N 37°46' E 026°22'1614.3
2014-Aug-22 23:27N 37°42' E 026°03'1314.4
2014-Aug-22 22:33N 37°38' E 025°48'1514.8
2014-Aug-22 21:33N 37°33' E 025°30'1010.4
2014-Aug-22 20:33N 37°27' E 025°19'0 0.3
2014-Aug-22 19:31N 37°27' E 025°19'0 0.0
2014-Aug-22 18:31N 37°27' E 025°19'0 0.0
2014-Aug-22 17:31N 37°27' E 025°19'0 0.0
2014-Aug-22 16:31N 37°27' E 025°19'0 0.0
2014-Aug-22 15:33N 37°27' E 025°19'1 0.9
2014-Aug-22 14:33N 37°27' E 025°18'1616.2
2014-Aug-22 13:33N 37°31' E 024°58'1716.8
2014-Aug-22 12:33N 37°31' E 024°37'2016.0
2014-Aug-22 11:18N 37°31' E 024°12'1316.6
2014-Aug-22 10:32N 37°35' E 023°57'1615.9
2014-Aug-22 09:33N 37°44' E 023°40'1212.5
2014-Aug-22 08:34N 37°56' E 023°38'0 0.0
2014-Aug-22 07:31N 37°56' E 023°38'0 0.0
2014-Aug-22 06:25N 37°56' E 023°38'0 0.0
2014-Aug-22 05:31N 37°56' E 023°38'0 0.0
2014-Aug-22 04:31N 37°56' E 023°38'0 0.0
2014-Aug-22 03:28N 37°56' E 023°38'0 0.0
2014-Aug-22 02:33N 37°56' E 023°38'8 8.1
2014-Aug-22 01:33N 37°49' E 023°41'1716.3
2014-Aug-22 00:30N 37°35' E 023°54'1415.2
2014-Aug-21 23:33N 37°25' E 024°08'1715.1
2014-Aug-21 22:25N 37°15' E 024°26'1315.4
2014-Aug-21 21:33N 37°08' E 024°40'1616.4
2014-Aug-21 20:34N 36°57' E 024°54'1717.0
2014-Aug-21 19:33N 36°45' E 025°10'1716.5
2014-Aug-21 18:34N 36°31' E 025°20'7 5.9
2014-Aug-21 17:20N 36°25' E 025°25'0 0.1
2014-Aug-21 16:33N 36°25' E 025°25'0 0.3
2014-Aug-21 15:33N 36°25' E 025°25'0 0.4
2014-Aug-21 14:30N 36°25' E 025°25'0 0.3
2014-Aug-21 13:08N 36°25' E 025°25'4 7.2
2014-Aug-21 12:33N 36°28' E 025°22'1313.3
2014-Aug-21 11:33N 36°40' E 025°16'3 2.7
2014-Aug-21 10:28N 36°43' E 025°16'0 0.0
2014-Aug-21 09:28N 36°43' E 025°16'0 0.0
2014-Aug-21 08:31N 36°43' E 025°16'0 0.0
2014-Aug-21 07:28N 36°43' E 025°16'0 0.0
2014-Aug-21 06:28N 36°43' E 025°16'0 0.0
2014-Aug-21 05:31N 36°43' E 025°16'0 0.0
2014-Aug-21 04:31N 36°43' E 025°16'0 0.2
2014-Aug-21 03:34N 36°43' E 025°16'7 7.4
2014-Aug-21 02:34N 36°37' E 025°22'9 8.5
2014-Aug-21 01:34N 36°39' E 025°32'9 8.9
2014-Aug-21 00:33N 36°41' E 025°43'9 8.7
2014-Aug-20 23:34N 36°43' E 025°54'9 8.6
2014-Aug-20 22:34N 36°44' E 026°04'9 8.7
2014-Aug-20 21:33N 36°46' E 026°15'8 8.2
2014-Aug-20 20:33N 36°48' E 026°25'8 7.7
2014-Aug-20 19:33N 36°49' E 026°35'20 8.3
2014-Aug-20 17:06N 36°53' E 026°60'6 8.4
2014-Aug-20 16:21N 36°54' E 027°08'8 8.0
2014-Aug-20 15:23N 36°56' E 027°17'95 2.4
2014-Aug-18 23:32N 37°45' E 025°35'1212.8
2014-Aug-18 22:33N 37°37' E 025°23'1110.8
2014-Aug-18 21:33N 37°30' E 025°13'1110.8
2014-Aug-18 20:33N 37°27' E 024°59'2 2.2
2014-Aug-18 19:31N 37°26' E 024°57'0 0.0
2014-Aug-18 18:31N 37°26' E 024°57'0 0.0
2014-Aug-18 17:28N 37°26' E 024°57'0 0.0
2014-Aug-18 16:31N 37°26' E 024°57'1 1.5
2014-Aug-18 15:33N 37°28' E 024°58'1712.0
2014-Aug-18 14:09N 37°31' E 024°37'813.3
2014-Aug-18 13:33N 37°31' E 024°27'  
Track history (hours):
 
Tides and Currents Weather Stations Pressure Air Temp Water Temp Dewpoint Dewpoint Depression Visibility Wind Speed Wind Dir Waves Ship Positions

Louis Cristal

Last reported at 2014-Aug-28 04:31 UTC. Time now 2014-Aug-28 05:29 UTC.
Position N 36°43' E 025°16'.

Length 162 m; draft 6 m.

Type: Passenger vessel. MMSI: 229001000.

Date/timePositionNaut miles runAvg speedWind from/ knotsBaromVisibWave heightAir tempDewpointWater temp
2014-Aug-28 04:31N 36°43' E 025°16'0 0.4
2014-Aug-28 03:33N 36°43' E 025°16'7 7.2
2014-Aug-28 02:33N 36°37' E 025°22'9 8.4
2014-Aug-28 01:32N 36°39' E 025°32'8 8.2
2014-Aug-28 00:33N 36°41' E 025°42'9 8.7
2014-Aug-27 23:33N 36°42' E 025°53'9 8.5
2014-Aug-27 22:33N 36°44' E 026°03'9 8.5
2014-Aug-27 21:33N 36°46' E 026°13'9 8.9
2014-Aug-27 20:33N 36°47' E 026°24'9 8.1
2014-Aug-27 19:25N 36°49' E 026°36'7 7.7
2014-Aug-27 18:31N 36°51' E 026°44'27 8.2
2014-Aug-27 15:13N 36°56' E 027°17'14 0.6
2014-Aug-26 16:32N 37°03' E 027°03'1414.1
2014-Aug-26 15:33N 37°16' E 026°56'1716.6
2014-Aug-26 14:33N 37°30' E 026°43'1616.4
2014-Aug-26 13:33N 37°43' E 026°32'1917.3
2014-Aug-26 12:28N 37°60' E 026°21'27 2.3
2014-Aug-26 00:32N 37°55' E 025°47'1212.0
2014-Aug-25 23:34N 37°47' E 025°36'1212.0
2014-Aug-25 22:34N 37°38' E 025°25'1211.7
2014-Aug-25 21:34N 37°31' E 025°14'1211.7
2014-Aug-25 20:33N 37°27' E 025°00'3 2.7
2014-Aug-25 19:33N 37°26' E 024°57'0 0.0
2014-Aug-25 18:33N 37°26' E 024°57'0 0.0
2014-Aug-25 17:33N 37°26' E 024°57'0 0.0
2014-Aug-25 16:33N 37°26' E 024°57'0 0.1
2014-Aug-25 15:33N 37°26' E 024°57'11 9.9
2014-Aug-25 14:28N 37°32' E 024°45'1516.0
2014-Aug-25 13:33N 37°31' E 024°27'1313.2
2014-Aug-25 12:32N 37°34' E 024°10'6 0.6
2014-Aug-25 02:26N 37°39' E 024°05'6 6.4
2014-Aug-25 01:33N 37°34' E 024°07'6 6.4
2014-Aug-25 00:33N 37°28' E 024°09'13 6.5
2014-Aug-24 22:33N 37°15' E 024°13'8 6.7
2014-Aug-24 21:22N 37°07' E 024°15'6 6.7
2014-Aug-24 20:33N 37°02' E 024°16'7 6.7
2014-Aug-24 19:33N 36°56' E 024°19'7 6.7
2014-Aug-24 18:33N 36°49' E 024°21'7 6.9
2014-Aug-24 17:33N 36°43' E 024°25'4 0.3
2014-Aug-24 04:33N 36°47' E 024°23'1816.3
2014-Aug-24 03:27N 37°02' E 024°35'1516.4
2014-Aug-24 02:33N 37°07' E 024°52'1616.2
2014-Aug-24 01:33N 37°13' E 025°11'1616.2
2014-Aug-24 00:33N 37°19' E 025°30'1615.3
2014-Aug-23 23:32N 37°25' E 025°49'1615.6
2014-Aug-23 22:32N 37°30' E 026°07'1414.7
2014-Aug-23 21:33N 37°38' E 026°23'1814.5
2014-Aug-23 20:19N 37°49' E 026°40'1 0.1
2014-Aug-23 01:33N 37°50' E 026°41'1514.9
2014-Aug-23 00:33N 37°46' E 026°22'1614.3
2014-Aug-22 23:27N 37°42' E 026°03'1314.4
2014-Aug-22 22:33N 37°38' E 025°48'1514.8
2014-Aug-22 21:33N 37°33' E 025°30'1010.4
2014-Aug-22 20:33N 37°27' E 025°19'0 0.3
2014-Aug-22 19:31N 37°27' E 025°19'0 0.0
2014-Aug-22 18:31N 37°27' E 025°19'0 0.0
2014-Aug-22 17:31N 37°27' E 025°19'0 0.0
2014-Aug-22 16:31N 37°27' E 025°19'0 0.0
2014-Aug-22 15:33N 37°27' E 025°19'1 0.9
2014-Aug-22 14:33N 37°27' E 025°18'1616.2
2014-Aug-22 13:33N 37°31' E 024°58'1716.8
2014-Aug-22 12:33N 37°31' E 024°37'2016.0
2014-Aug-22 11:18N 37°31' E 024°12'1316.6
2014-Aug-22 10:32N 37°35' E 023°57'1615.9
2014-Aug-22 09:33N 37°44' E 023°40'1212.5
2014-Aug-22 08:34N 37°56' E 023°38'0 0.0
2014-Aug-22 07:31N 37°56' E 023°38'0 0.0
2014-Aug-22 06:25N 37°56' E 023°38'0 0.0
2014-Aug-22 05:31N 37°56' E 023°38'0 0.0
2014-Aug-22 04:31N 37°56' E 023°38'0 0.0
2014-Aug-22 03:28N 37°56' E 023°38'0 0.0
2014-Aug-22 02:33N 37°56' E 023°38'8 8.1
2014-Aug-22 01:33N 37°49' E 023°41'1716.3
2014-Aug-22 00:30N 37°35' E 023°54'1415.2
2014-Aug-21 23:33N 37°25' E 024°08'1715.1
2014-Aug-21 22:25N 37°15' E 024°26'1315.4
2014-Aug-21 21:33N 37°08' E 024°40'1616.4
2014-Aug-21 20:34N 36°57' E 024°54'1717.0
2014-Aug-21 19:33N 36°45' E 025°10'1716.5
2014-Aug-21 18:34N 36°31' E 025°20'7 5.9
2014-Aug-21 17:20N 36°25' E 025°25'0 0.1
2014-Aug-21 16:33N 36°25' E 025°25'0 0.3
2014-Aug-21 15:33N 36°25' E 025°25'0 0.4
2014-Aug-21 14:30N 36°25' E 025°25'0 0.3
2014-Aug-21 13:08N 36°25' E 025°25'4 7.2
2014-Aug-21 12:33N 36°28' E 025°22'1313.3
2014-Aug-21 11:33N 36°40' E 025°16'3 2.7
2014-Aug-21 10:28N 36°43' E 025°16'0 0.0
2014-Aug-21 09:28N 36°43' E 025°16'0 0.0
2014-Aug-21 08:31N 36°43' E 025°16'0 0.0
2014-Aug-21 07:28N 36°43' E 025°16'0 0.0
2014-Aug-21 06:28N 36°43' E 025°16'0 0.0
2014-Aug-21 05:31N 36°43' E 025°16'0 0.0
2014-Aug-21 04:31N 36°43' E 025°16'0 0.2
2014-Aug-21 03:34N 36°43' E 025°16'7 7.4
2014-Aug-21 02:34N 36°37' E 025°22'9 8.5
2014-Aug-21 01:34N 36°39' E 025°32'9 8.9
2014-Aug-21 00:33N 36°41' E 025°43'9 8.7
2014-Aug-20 23:34N 36°43' E 025°54'9 8.6
2014-Aug-20 22:34N 36°44' E 026°04'9 8.7
2014-Aug-20 21:33N 36°46' E 026°15'8 8.2
2014-Aug-20 20:33N 36°48' E 026°25'8 7.7
2014-Aug-20 19:33N 36°49' E 026°35'20 8.3
2014-Aug-20 17:06N 36°53' E 026°60'6 8.4
2014-Aug-20 16:21N 36°54' E 027°08'8 8.0
2014-Aug-20 15:23N 36°56' E 027°17'95 2.4
2014-Aug-18 23:32N 37°45' E 025°35'1212.8
2014-Aug-18 22:33N 37°37' E 025°23'1110.8
2014-Aug-18 21:33N 37°30' E 025°13'1110.8
2014-Aug-18 20:33N 37°27' E 024°59'2 2.2
2014-Aug-18 19:31N 37°26' E 024°57'0 0.0
2014-Aug-18 18:31N 37°26' E 024°57'0 0.0
2014-Aug-18 17:28N 37°26' E 024°57'0 0.0
2014-Aug-18 16:31N 37°26' E 024°57'1 1.5
2014-Aug-18 15:33N 37°28' E 024°58'1712.0
2014-Aug-18 14:09N 37°31' E 024°37'813.3
2014-Aug-18 13:33N 37°31' E 024°27'  

Dump ship's entire track history